Time;durP1;ratioP1;P1;durP2;ratioP2;P2;SDS_P1;SDS_P2;PMS_P1;PMS_P2;Temp;Humidity;BMP_temperature;BMP_pressure;BME280_temperature;BME280_humidity;BME280_pressure;Samples;Min_cycle;Max_cycle;Signal;HPM_P1;HPM_P2
2023/05/24 00:00:24;;;;;;;7.35;5.55;;;;;;;;;;4990972;28;20133;-79
2023/05/24 00:02:50;;;;;;;7.70;5.85;;;;;;;;;;4974330;28;20614;-79
2023/05/24 00:05:17;;;;;;;9.23;5.88;;;;;;;;;;4991231;28;20068;-78
2023/05/24 00:07:43;;;;;;;6.45;5.85;;;;;;;;;;4973861;28;20038;-81
2023/05/24 00:10:10;;;;;;;6.72;5.50;;;;;;;;;;4973930;28;20101;-79
2023/05/24 00:12:36;;;;;;;5.82;5.15;;;;;;;;;;4973925;28;20677;-79
2023/05/24 00:15:02;;;;;;;5.43;4.93;;;;;;;;;;4991094;28;20056;-80
2023/05/24 00:17:39;;;;;;;4.93;4.55;;;;;;;;;;4989867;28;20049;-79
2023/05/24 00:20:12;;;;;;;7.93;4.60;;;;;;;;;;4973817;28;20046;-80
2023/05/24 00:22:39;;;;;;;6.38;4.72;;;;;;;;;;4973525;28;20565;-79
2023/05/24 00:25:05;;;;;;;10.23;5.05;;;;;;;;;;4990468;28;20058;-79
2023/05/24 00:27:31;;;;;;;6.05;5.05;;;;;;;;;;4990870;28;20038;-78
2023/05/24 00:29:59;;;;;;;5.63;5.05;;;;;;;;;;4973453;28;20034;-79
2023/05/24 00:32:41;;;;;;;7.43;4.90;;;;;;;;;;4975310;28;20138;-79
2023/05/24 00:35:08;;;;;;;5.78;4.93;;;;;;;;;;4958248;28;20046;-80
2023/05/24 00:37:34;;;;;;;5.78;5.20;;;;;;;;;;4977761;28;20122;-80
2023/05/24 00:40:00;;;;;;;12.73;5.28;;;;;;;;;;4992911;28;20061;-80
2023/05/24 00:42:26;;;;;;;12.60;5.68;;;;;;;;;;4992958;28;20069;-79
2023/05/24 00:44:52;;;;;;;6.40;5.65;;;;;;;;;;4992388;28;20446;-78
2023/05/24 00:47:18;;;;;;;6.45;5.50;;;;;;;;;;5012640;28;20042;-78
2023/05/24 00:49:45;;;;;;;6.88;5.22;;;;;;;;;;4964304;28;20425;-80
2023/05/24 00:52:11;;;;;;;11.23;5.30;;;;;;;;;;4997575;28;20046;-79
2023/05/24 00:54:39;;;;;;;10.35;5.53;;;;;;;;;;5015105;28;20124;-80
2023/05/24 00:57:05;;;;;;;15.98;5.43;;;;;;;;;;4982662;28;20093;-81
2023/05/24 00:59:31;;;;;;;9.05;5.60;;;;;;;;;;4981085;28;20140;-79
2023/05/24 01:01:57;;;;;;;14.90;5.00;;;;;;;;;;5008308;28;20041;-78
2023/05/24 01:04:24;;;;;;;16.48;5.18;;;;;;;;;;5002615;28;20060;-80
2023/05/24 01:07:17;;;;;;;14.63;5.78;;;;;;;;;;4985234;28;20057;-80
2023/05/24 01:10:12;;;;;;;11.50;5.70;;;;;;;;;;4992808;28;20164;-81
2023/05/24 01:12:48;;;;;;;15.05;5.80;;;;;;;;;;4960962;28;20054;-80
2023/05/24 01:15:21;;;;;;;15.50;5.47;;;;;;;;;;4996776;28;20048;-78
2023/05/24 01:17:50;;;;;;;18.08;6.70;;;;;;;;;;5008763;28;20494;-82
2023/05/24 01:20:16;;;;;;;5.97;5.35;;;;;;;;;;5006758;28;20112;-78
2023/05/24 01:22:50;;;;;;;11.70;5.38;;;;;;;;;;5001129;28;20069;-82
2023/05/24 01:25:21;;;;;;;6.07;5.57;;;;;;;;;;5026527;28;20057;-81
2023/05/24 01:27:48;;;;;;;10.13;5.53;;;;;;;;;;4993209;28;20046;-81
2023/05/24 01:30:14;;;;;;;10.95;5.38;;;;;;;;;;4994342;28;20050;-81
2023/05/24 01:32:40;;;;;;;8.10;5.97;;;;;;;;;;4996846;28;20129;-83
2023/05/24 01:35:06;;;;;;;7.57;5.70;;;;;;;;;;5033551;28;20045;-81
2023/05/24 01:37:32;;;;;;;10.52;6.07;;;;;;;;;;5026963;28;20611;-81
2023/05/24 01:39:59;;;;;;;7.82;5.43;;;;;;;;;;4989487;28;20049;-82
2023/05/24 01:42:41;;;;;;;8.48;5.80;;;;;;;;;;4983031;28;20584;-80
2023/05/24 01:45:16;;;;;;;6.10;5.60;;;;;;;;;;4998539;28;20117;-81
2023/05/24 01:48:01;;;;;;;9.00;5.50;;;;;;;;;;4998180;28;20046;-80
2023/05/24 01:50:30;;;;;;;8.98;5.30;;;;;;;;;;4997783;28;20514;-81
2023/05/24 01:52:59;;;;;;;6.20;4.82;;;;;;;;;;4997464;28;20129;-81
2023/05/24 01:55:26;;;;;;;6.38;5.40;;;;;;;;;;4996551;28;20510;-81
2023/05/24 01:57:52;;;;;;;8.50;5.90;;;;;;;;;;4996139;28;20394;-78
2023/05/24 02:00:18;;;;;;;11.10;5.65;;;;;;;;;;5013909;28;20073;-81
2023/05/24 02:02:44;;;;;;;11.10;5.93;;;;;;;;;;4996213;28;20466;-80
2023/05/24 02:05:11;;;;;;;6.93;5.60;;;;;;;;;;5013863;28;20124;-81
2023/05/24 02:07:37;;;;;;;9.20;5.25;;;;;;;;;;5013524;28;20074;-80
2023/05/24 02:10:03;;;;;;;5.55;5.15;;;;;;;;;;4996119;28;20537;-80
2023/05/24 02:12:34;;;;;;;6.45;5.40;;;;;;;;;;4998049;28;20038;-80
2023/05/24 02:15:03;;;;;;;10.40;5.88;;;;;;;;;;5014821;28;20058;-80
2023/05/24 02:17:34;;;;;;;11.75;5.43;;;;;;;;;;4982767;28;20422;-79
2023/05/24 02:20:01;;;;;;;9.60;5.70;;;;;;;;;;5012069;28;20049;-80
2023/05/24 02:22:32;;;;;;;5.38;4.90;;;;;;;;;;5011588;28;20070;-81
2023/05/24 02:24:58;;;;;;;9.60;5.25;;;;;;;;;;5010905;28;20093;-77
2023/05/24 02:27:24;;;;;;;9.40;5.57;;;;;;;;;;5012872;28;20054;-81
2023/05/24 02:29:51;;;;;;;5.22;4.78;;;;;;;;;;5014192;28;20604;-81
2023/05/24 02:32:18;;;;;;;6.60;5.03;;;;;;;;;;4981563;28;20045;-80
2023/05/24 02:34:44;;;;;;;6.43;5.53;;;;;;;;;;5013835;28;20046;-81
2023/05/24 02:37:13;;;;;;;6.15;5.38;;;;;;;;;;4995489;28;20042;-79
2023/05/24 02:39:40;;;;;;;5.35;4.85;;;;;;;;;;5012230;28;20033;-79
2023/05/24 02:42:07;;;;;;;6.97;4.47;;;;;;;;;;4978750;28;20099;-80
2023/05/24 02:44:34;;;;;;;8.30;4.70;;;;;;;;;;4995201;28;20469;-81
2023/05/24 02:47:00;;;;;;;7.40;4.70;;;;;;;;;;4978575;28;20041;-79
2023/05/24 02:49:26;;;;;;;6.93;4.90;;;;;;;;;;5012722;28;20200;-80
2023/05/24 02:51:52;;;;;;;7.43;5.10;;;;;;;;;;4994929;28;20577;-80
2023/05/24 02:54:18;;;;;;;5.25;4.78;;;;;;;;;;4989058;28;20050;-79
2023/05/24 02:56:44;;;;;;;5.88;5.15;;;;;;;;;;5024209;28;20048;-79
2023/05/24 02:59:14;;;;;;;7.63;5.07;;;;;;;;;;4996027;28;20540;-82
2023/05/24 03:01:41;;;;;;;4.90;4.50;;;;;;;;;;4968435;28;20042;-80
2023/05/24 03:04:07;;;;;;;6.10;5.05;;;;;;;;;;5019394;28;20496;-82
2023/05/24 03:06:33;;;;;;;7.38;4.57;;;;;;;;;;5000496;28;20130;-80
2023/05/24 03:08:59;;;;;;;6.68;5.03;;;;;;;;;;4991591;28;20034;-78
2023/05/24 03:11:26;;;;;;;8.82;5.05;;;;;;;;;;4993027;28;20046;-80
2023/05/24 03:13:52;;;;;;;5.95;4.88;;;;;;;;;;4965129;28;20040;-78
2023/05/24 03:16:19;;;;;;;8.45;5.22;;;;;;;;;;5004517;28;20049;-78
2023/05/24 03:18:49;;;;;;;4.97;4.47;;;;;;;;;;5006486;28;20049;-79
2023/05/24 03:21:16;;;;;;;5.00;4.55;;;;;;;;;;4994232;28;20042;-78
2023/05/24 03:23:43;;;;;;;8.15;5.15;;;;;;;;;;4993511;28;20054;-79
2023/05/24 03:26:09;;;;;;;8.65;4.78;;;;;;;;;;4978152;28;20061;-80
2023/05/24 03:28:35;;;;;;;5.28;4.38;;;;;;;;;;4994835;28;20065;-81
2023/05/24 03:31:01;;;;;;;6.82;4.70;;;;;;;;;;4992875;28;20042;-82
2023/05/24 03:33:27;;;;;;;9.15;5.00;;;;;;;;;;4999131;28;20046;-80
2023/05/24 03:35:54;;;;;;;9.98;4.45;;;;;;;;;;4988465;28;20045;-81
2023/05/24 03:38:22;;;;;;;5.07;4.57;;;;;;;;;;5002985;28;20038;-81
2023/05/24 03:40:48;;;;;;;5.00;4.43;;;;;;;;;;4990178;28;20132;-82
2023/05/24 03:43:18;;;;;;;5.25;4.72;;;;;;;;;;5001821;28;20538;-80
2023/05/24 03:45:52;;;;;;;6.45;4.25;;;;;;;;;;5003958;28;20048;-82
2023/05/24 03:48:21;;;;;;;5.18;4.68;;;;;;;;;;5001274;28;20072;-80
2023/05/24 03:50:50;;;;;;;9.80;4.72;;;;;;;;;;4957411;28;20482;-79
2023/05/24 03:53:16;;;;;;;5.75;4.75;;;;;;;;;;4974481;28;20077;-79
2023/05/24 03:55:42;;;;;;;6.15;4.43;;;;;;;;;;4973921;28;20089;-81
2023/05/24 03:58:11;;;;;;;5.65;4.38;;;;;;;;;;4974406;28;20038;-79
2023/05/24 04:00:38;;;;;;;4.82;4.43;;;;;;;;;;4991695;28;20050;-82
2023/05/24 04:03:05;;;;;;;5.18;4.30;;;;;;;;;;4958435;28;20522;-80
2023/05/24 04:05:32;;;;;;;4.78;4.38;;;;;;;;;;4986847;28;20057;-81
2023/05/24 04:07:59;;;;;;;8.68;4.28;;;;;;;;;;4993385;28;20589;-80
2023/05/24 04:10:25;;;;;;;4.40;4.00;;;;;;;;;;4961328;28;20077;-79
2023/05/24 04:12:51;;;;;;;4.55;4.15;;;;;;;;;;4976970;28;20111;-78
2023/05/24 04:15:17;;;;;;;9.55;4.70;;;;;;;;;;4993205;28;20045;-80
2023/05/24 04:17:45;;;;;;;7.53;4.63;;;;;;;;;;4993538;28;20391;-80
2023/05/24 04:20:11;;;;;;;6.15;4.50;;;;;;;;;;4946305;28;20042;-79
2023/05/24 04:22:38;;;;;;;6.35;4.85;;;;;;;;;;4977937;28;20046;-80
2023/05/24 04:25:05;;;;;;;5.65;4.43;;;;;;;;;;4993092;28;20038;-79
2023/05/24 04:27:31;;;;;;;6.18;4.40;;;;;;;;;;4976718;28;20049;-79
2023/05/24 04:29:58;;;;;;;7.30;4.50;;;;;;;;;;4991119;28;20108;-80
2023/05/24 04:32:25;;;;;;;6.47;4.57;;;;;;;;;;4990617;28;20046;-79
2023/05/24 04:34:52;;;;;;;7.88;4.45;;;;;;;;;;4959003;28;20041;-79
2023/05/24 04:37:19;;;;;;;6.28;4.20;;;;;;;;;;4974900;28;20038;-80
2023/05/24 04:39:47;;;;;;;4.97;4.47;;;;;;;;;;4990597;28;20037;-79
2023/05/24 04:42:13;;;;;;;8.15;4.70;;;;;;;;;;4991104;28;20046;-80
2023/05/24 04:44:39;;;;;;;8.02;4.63;;;;;;;;;;4999439;28;20049;-79
2023/05/24 04:47:06;;;;;;;7.45;4.88;;;;;;;;;;5013201;28;20477;-78
2023/05/24 04:49:32;;;;;;;9.43;4.95;;;;;;;;;;5010686;28;20099;-78
2023/05/24 04:51:57;;;;;;;6.50;5.15;;;;;;;;;;5010047;28;20050;-80
2023/05/24 04:54:23;;;;;;;5.70;3.88;;;;;;;;;;5010364;28;20045;-77
2023/05/24 04:56:50;;;;;;;5.80;5.25;;;;;;;;;;4992499;28;20132;-80
2023/05/24 04:59:16;;;;;;;8.25;5.30;;;;;;;;;;4976847;28;20061;-77
2023/05/24 05:01:43;;;;;;;5.53;5.10;;;;;;;;;;4992538;28;20034;-79
2023/05/24 05:04:09;;;;;;;12.35;5.13;;;;;;;;;;4993587;28;20061;-77
2023/05/24 05:06:39;;;;;;;10.23;5.60;;;;;;;;;;4995261;28;20144;-79
2023/05/24 05:09:09;;;;;;;9.23;4.43;;;;;;;;;;5012541;28;20056;-77
2023/05/24 05:11:35;;;;;;;5.22;4.70;;;;;;;;;;4995209;28;20046;-78
2023/05/24 05:14:02;;;;;;;5.63;5.10;;;;;;;;;;4992177;28;20041;-78
2023/05/24 05:16:28;;;;;;;10.38;4.80;;;;;;;;;;4994561;28;20429;-79
2023/05/24 05:18:54;;;;;;;13.23;5.05;;;;;;;;;;4993046;28;20049;-81
2023/05/24 05:21:20;;;;;;;6.88;5.00;;;;;;;;;;5009871;28;20188;-80
2023/05/24 05:23:46;;;;;;;8.63;5.35;;;;;;;;;;5008839;28;20525;-79
2023/05/24 05:26:12;;;;;;;9.50;5.90;;;;;;;;;;4974047;28;20054;-81
2023/05/24 05:28:38;;;;;;;16.95;6.18;;;;;;;;;;4973022;28;20153;-79
2023/05/24 05:31:08;;;;;;;8.48;5.28;;;;;;;;;;4972763;28;20057;-81
2023/05/24 05:33:34;;;;;;;9.10;5.32;;;;;;;;;;4959576;28;20333;-82
2023/05/24 05:36:00;;;;;;;7.07;5.57;;;;;;;;;;4978435;28;20108;-77
2023/05/24 05:38:26;;;;;;;8.52;5.68;;;;;;;;;;4978939;28;20030;-77
2023/05/24 05:40:52;;;;;;;10.00;5.53;;;;;;;;;;5001778;28;20045;-76
2023/05/24 05:43:18;;;;;;;12.27;5.78;;;;;;;;;;5024032;28;20033;-77
2023/05/24 05:45:44;;;;;;;6.00;5.43;;;;;;;;;;4994954;28;20056;-75
2023/05/24 05:48:10;;;;;;;11.65;5.57;;;;;;;;;;4978283;28;20512;-77
2023/05/24 05:50:36;;;;;;;5.43;4.63;;;;;;;;;;4962862;28;20054;-76
2023/05/24 05:53:02;;;;;;;6.53;5.57;;;;;;;;;;5001561;28;20049;-77
2023/05/24 05:55:28;;;;;;;7.50;5.78;;;;;;;;;;5032137;28;20603;-79
2023/05/24 05:57:55;;;;;;;9.57;5.50;;;;;;;;;;4992137;28;20054;-78
2023/05/24 06:00:21;;;;;;;14.93;7.38;;;;;;;;;;4979875;28;20510;-78
2023/05/24 06:02:47;;;;;;;7.25;5.68;;;;;;;;;;4999370;28;20134;-83
2023/05/24 06:05:13;;;;;;;6.60;6.10;;;;;;;;;;4981018;28;20144;-82
2023/05/24 06:07:39;;;;;;;5.43;4.85;;;;;;;;;;4966158;28;20049;-81
2023/05/24 06:10:06;;;;;;;7.40;5.32;;;;;;;;;;4998968;28;20359;-81
2023/05/24 06:12:33;;;;;;;7.60;6.07;;;;;;;;;;5015605;28;20038;-81
2023/05/24 06:14:59;;;;;;;13.02;5.47;;;;;;;;;;4998422;28;20057;-82
2023/05/24 06:17:26;;;;;;;7.70;5.70;;;;;;;;;;4998692;28;20120;-82
2023/05/24 06:19:53;;;;;;;9.98;5.53;;;;;;;;;;5014612;28;20037;-82
2023/05/24 06:22:20;;;;;;;7.47;5.70;;;;;;;;;;5014728;28;20042;-82
2023/05/24 06:24:47;;;;;;;6.03;5.53;;;;;;;;;;4996617;28;20048;-76
2023/05/24 06:27:14;;;;;;;6.88;6.00;;;;;;;;;;5012785;28;20677;-76
2023/05/24 06:29:40;;;;;;;6.60;5.57;;;;;;;;;;5020399;28;20034;-78
2023/05/24 06:32:06;;;;;;;8.18;5.88;;;;;;;;;;5013681;28;20052;-77
2023/05/24 06:34:32;;;;;;;6.35;5.75;;;;;;;;;;5015277;28;20033;-81
2023/05/24 06:36:58;;;;;;;8.68;6.10;;;;;;;;;;5008613;28;20045;-81
2023/05/24 06:39:24;;;;;;;8.52;6.30;;;;;;;;;;4970860;28;20474;-78
2023/05/24 06:41:52;;;;;;;6.40;5.90;;;;;;;;;;5011327;28;20072;-74
2023/05/24 06:44:30;;;;;;;8.52;5.45;;;;;;;;;;4992832;28;20395;-75
2023/05/24 06:46:57;;;;;;;11.90;6.35;;;;;;;;;;4977627;28;20042;-75
2023/05/24 06:49:23;;;;;;;13.77;6.15;;;;;;;;;;4994052;28;20042;-74
2023/05/24 06:51:49;;;;;;;8.00;5.68;;;;;;;;;;4994311;28;20202;-74
2023/05/24 06:54:15;;;;;;;6.28;5.78;;;;;;;;;;4992843;28;20070;-75
2023/05/24 06:56:41;;;;;;;9.07;5.45;;;;;;;;;;5010090;28;20050;-74
2023/05/24 06:59:07;;;;;;;5.85;5.38;;;;;;;;;;5014748;28;20033;-81
2023/05/24 07:01:35;;;;;;;9.00;5.70;;;;;;;;;;4978545;28;20048;-80
2023/05/24 07:04:01;;;;;;;6.25;5.65;;;;;;;;;;4967239;28;20510;-81
2023/05/24 07:06:28;;;;;;;6.75;5.65;;;;;;;;;;4955766;28;20057;-82
2023/05/24 07:08:54;;;;;;;8.88;5.38;;;;;;;;;;4981601;28;20037;-77
2023/05/24 07:11:20;;;;;;;7.25;6.53;;;;;;;;;;5008414;28;20054;-73
2023/05/24 07:13:46;;;;;;;6.68;6.07;;;;;;;;;;5010533;28;20034;-72
2023/05/24 07:16:12;;;;;;;7.47;6.18;;;;;;;;;;5007521;28;20048;-75
2023/05/24 07:18:40;;;;;;;8.60;6.82;;;;;;;;;;5009147;28;20116;-73
2023/05/24 07:21:06;;;;;;;7.00;6.32;;;;;;;;;;5010324;28;20057;-78
2023/05/24 07:23:33;;;;;;;8.43;6.40;;;;;;;;;;4960050;28;20125;-77
2023/05/24 07:25:59;;;;;;;7.88;5.82;;;;;;;;;;4973093;28;20148;-78
2023/05/24 07:28:25;;;;;;;6.50;5.80;;;;;;;;;;4993022;28;20037;-78
2023/05/24 07:30:51;;;;;;;10.50;6.55;;;;;;;;;;4972582;28;20530;-78
2023/05/24 07:33:17;;;;;;;12.32;6.70;;;;;;;;;;5006870;28;20037;-78
2023/05/24 07:35:49;;;;;;;11.25;7.03;;;;;;;;;;4992555;28;20054;-77
2023/05/24 07:38:17;;;;;;;9.23;6.55;;;;;;;;;;4991542;28;20041;-78
2023/05/24 07:40:43;;;;;;;10.40;6.75;;;;;;;;;;4974708;28;20046;-78
2023/05/24 07:43:09;;;;;;;10.23;6.60;;;;;;;;;;4990452;28;20568;-78
2023/05/24 07:45:35;;;;;;;9.18;7.07;;;;;;;;;;4990717;28;20053;-78
2023/05/24 07:48:01;;;;;;;15.90;7.45;;;;;;;;;;4990001;28;20645;-78
2023/05/24 07:50:28;;;;;;;12.55;6.45;;;;;;;;;;5009401;28;20050;-78
2023/05/24 07:52:55;;;;;;;10.07;6.60;;;;;;;;;;4992040;28;20046;-79
2023/05/24 07:55:21;;;;;;;16.25;7.07;;;;;;;;;;4982331;28;20046;-78
2023/05/24 07:57:47;;;;;;;14.52;7.20;;;;;;;;;;4970874;28;20049;-80
2023/05/24 08:00:15;;;;;;;12.90;6.80;;;;;;;;;;4998088;28;20040;-79
2023/05/24 08:02:42;;;;;;;13.15;7.28;;;;;;;;;;5012283;28;20550;-78
2023/05/24 08:05:10;;;;;;;7.68;6.88;;;;;;;;;;4977676;28;20069;-80
2023/05/24 08:07:37;;;;;;;7.07;6.38;;;;;;;;;;4977656;28;20042;-79
2023/05/24 08:10:03;;;;;;;10.98;6.00;;;;;;;;;;4993132;28;20049;-78
2023/05/24 08:12:30;;;;;;;9.75;6.07;;;;;;;;;;4993582;28;20037;-79
2023/05/24 08:14:57;;;;;;;12.10;6.68;;;;;;;;;;4960928;28;20065;-78
2023/05/24 08:17:23;;;;;;;17.50;7.15;;;;;;;;;;4976755;28;20140;-78
2023/05/24 08:19:49;;;;;;;8.40;6.50;;;;;;;;;;4993325;28;20100;-78
2023/05/24 08:22:15;;;;;;;8.10;6.20;;;;;;;;;;5010481;28;20046;-79
2023/05/24 08:24:41;;;;;;;18.27;6.30;;;;;;;;;;4978311;28;20049;-80
2023/05/24 08:27:07;;;;;;;8.43;5.95;;;;;;;;;;5007314;28;20052;-77
2023/05/24 08:29:34;;;;;;;9.05;6.45;;;;;;;;;;4982414;28;20422;-77
2023/05/24 08:32:01;;;;;;;10.77;5.65;;;;;;;;;;4976482;28;20053;-77
2023/05/24 08:34:28;;;;;;;9.32;6.05;;;;;;;;;;4977139;28;20045;-78
2023/05/24 08:36:54;;;;;;;7.95;5.82;;;;;;;;;;5010545;28;20141;-78
2023/05/24 08:39:20;;;;;;;8.90;6.20;;;;;;;;;;4993017;28;20545;-78
2023/05/24 08:41:46;;;;;;;10.73;6.38;;;;;;;;;;4992941;28;20065;-79
2023/05/24 08:44:13;;;;;;;10.98;6.45;;;;;;;;;;4976502;28;20045;-78
2023/05/24 08:46:39;;;;;;;9.43;6.35;;;;;;;;;;4992823;28;20037;-76
2023/05/24 08:49:07;;;;;;;11.07;5.80;;;;;;;;;;4992657;28;20132;-78
2023/05/24 08:51:33;;;;;;;12.13;6.20;;;;;;;;;;4992847;28;20613;-78
2023/05/24 08:54:00;;;;;;;12.07;5.45;;;;;;;;;;4976590;28;20128;-78
2023/05/24 08:56:26;;;;;;;11.48;6.13;;;;;;;;;;4960344;28;20038;-79
2023/05/24 08:58:52;;;;;;;10.48;5.72;;;;;;;;;;4992742;28;20049;-78
2023/05/24 09:01:19;;;;;;;7.60;5.20;;;;;;;;;;4976252;28;20069;-78
2023/05/24 09:03:45;;;;;;;8.90;5.55;;;;;;;;;;5010341;28;20044;-78
2023/05/24 09:06:11;;;;;;;6.90;5.07;;;;;;;;;;5009813;28;20042;-79
2023/05/24 09:08:37;;;;;;;11.32;5.38;;;;;;;;;;4995640;28;20169;-79
2023/05/24 09:11:03;;;;;;;8.10;4.93;;;;;;;;;;4980637;28;20137;-79
2023/05/24 09:13:30;;;;;;;7.25;4.95;;;;;;;;;;4996911;28;20125;-79
2023/05/24 09:15:57;;;;;;;4.85;4.45;;;;;;;;;;4980479;28;20033;-78
2023/05/24 09:18:23;;;;;;;5.97;4.47;;;;;;;;;;4996349;28;20069;-78
2023/05/24 09:20:50;;;;;;;6.70;4.70;;;;;;;;;;4980537;28;20049;-79
2023/05/24 09:23:16;;;;;;;6.00;4.40;;;;;;;;;;4980035;28;20120;-78
2023/05/24 09:25:45;;;;;;;9.98;4.80;;;;;;;;;;5013439;28;20065;-78
2023/05/24 09:28:16;;;;;;;5.68;4.18;;;;;;;;;;4995748;28;20052;-78
2023/05/24 09:30:43;;;;;;;7.35;4.45;;;;;;;;;;4964083;28;20049;-78
2023/05/24 09:33:09;;;;;;;5.43;4.63;;;;;;;;;;5013304;28;20037;-78
2023/05/24 09:35:35;;;;;;;5.05;4.50;;;;;;;;;;5013815;28;20124;-78
2023/05/24 09:38:02;;;;;;;9.18;4.57;;;;;;;;;;4979077;28;20049;-78
2023/05/24 09:40:29;;;;;;;9.18;5.30;;;;;;;;;;4963762;28;20041;-78
2023/05/24 09:43:01;;;;;;;7.20;4.78;;;;;;;;;;4979366;28;20045;-78
2023/05/24 09:45:28;;;;;;;6.95;4.20;;;;;;;;;;4963608;28;20195;-77
2023/05/24 09:47:54;;;;;;;5.30;4.50;;;;;;;;;;4995644;28;20520;-79
2023/05/24 09:50:20;;;;;;;5.10;4.65;;;;;;;;;;4995221;28;20048;-78
2023/05/24 09:52:46;;;;;;;5.32;4.60;;;;;;;;;;4979720;28;20037;-78
2023/05/24 09:55:14;;;;;;;5.85;5.20;;;;;;;;;;4995667;28;20040;-79
2023/05/24 09:57:40;;;;;;;8.68;4.85;;;;;;;;;;4979862;28;20525;-78
2023/05/24 10:00:13;;;;;;;5.55;4.90;;;;;;;;;;4995642;28;20045;-78
2023/05/24 10:02:39;;;;;;;10.45;5.32;;;;;;;;;;4979875;28;20045;-78
2023/05/24 10:05:06;;;;;;;5.70;4.78;;;;;;;;;;4995832;28;20046;-79
2023/05/24 10:07:32;;;;;;;12.23;5.47;;;;;;;;;;4979824;28;20140;-77
2023/05/24 10:09:58;;;;;;;17.05;5.80;;;;;;;;;;4988574;28;20398;-78
2023/05/24 10:12:25;;;;;;;7.13;5.00;;;;;;;;;;5021150;28;20041;-79
2023/05/24 10:14:51;;;;;;;8.85;5.43;;;;;;;;;;5016228;28;20042;-77
2023/05/24 10:17:17;;;;;;;9.00;5.40;;;;;;;;;;5006973;28;20100;-78
2023/05/24 10:19:43;;;;;;;6.75;5.13;;;;;;;;;;4995561;28;20057;-79
2023/05/24 10:22:10;;;;;;;7.95;5.07;;;;;;;;;;4978855;28;20038;-78
2023/05/24 10:24:40;;;;;;;5.95;4.63;;;;;;;;;;4995695;28;20050;-79
2023/05/24 10:27:06;;;;;;;8.85;4.85;;;;;;;;;;4978985;28;20588;-79
2023/05/24 10:29:36;;;;;;;6.13;4.90;;;;;;;;;;4995198;28;20069;-77
2023/05/24 10:32:03;;;;;;;5.80;4.68;;;;;;;;;;4978934;28;20034;-79
2023/05/24 10:34:29;;;;;;;7.03;4.60;;;;;;;;;;4994871;28;20042;-77
2023/05/24 10:36:56;;;;;;;6.45;5.43;;;;;;;;;;4994926;28;20553;-77
2023/05/24 10:39:23;;;;;;;8.55;5.25;;;;;;;;;;4962313;28;20498;-77
2023/05/24 10:41:49;;;;;;;13.15;5.03;;;;;;;;;;4978574;28;20129;-78
2023/05/24 10:44:17;;;;;;;12.93;5.13;;;;;;;;;;5011985;28;20184;-78
2023/05/24 10:47:03;;;;;;;5.57;4.93;;;;;;;;;;4962361;28;20129;-78
2023/05/24 10:49:30;;;;;;;7.25;5.03;;;;;;;;;;4994657;28;20073;-78
2023/05/24 10:52:16;;;;;;;7.25;4.70;;;;;;;;;;4978445;28;20041;-78
2023/05/24 10:55:04;;;;;;;5.65;5.20;;;;;;;;;;4994545;28;20050;-79
2023/05/24 10:57:31;;;;;;;9.68;5.38;;;;;;;;;;4979542;28;20085;-79
2023/05/24 10:59:57;;;;;;;6.32;4.90;;;;;;;;;;4996891;28;20422;-78
2023/05/24 11:02:27;;;;;;;5.82;4.53;;;;;;;;;;4979415;28;20053;-78
2023/05/24 11:04:55;;;;;;;12.70;4.65;;;;;;;;;;4963768;28;20045;-79
2023/05/24 11:07:21;;;;;;;6.40;4.20;;;;;;;;;;4995209;28;20057;-78
2023/05/24 11:09:51;;;;;;;11.48;4.22;;;;;;;;;;4962180;28;20064;-80
2023/05/24 11:12:18;;;;;;;8.88;4.40;;;;;;;;;;4977645;28;20038;-79
2023/05/24 11:14:48;;;;;;;7.22;4.28;;;;;;;;;;4994400;28;20616;-78
2023/05/24 11:17:14;;;;;;;6.60;4.20;;;;;;;;;;4977879;28;20124;-78
2023/05/24 11:19:47;;;;;;;6.22;4.63;;;;;;;;;;4978252;28;20049;-79
2023/05/24 11:22:13;;;;;;;9.35;4.07;;;;;;;;;;4993842;28;20041;-77
2023/05/24 11:24:40;;;;;;;7.40;4.32;;;;;;;;;;4962783;28;20050;-79
2023/05/24 11:27:06;;;;;;;13.95;4.63;;;;;;;;;;4978858;28;20451;-78
2023/05/24 11:29:32;;;;;;;7.78;4.00;;;;;;;;;;4980131;28;20052;-78
2023/05/24 11:32:03;;;;;;;7.25;4.57;;;;;;;;;;4984867;28;20046;-78
2023/05/24 11:34:30;;;;;;;7.93;4.10;;;;;;;;;;4994150;28;20030;-78
2023/05/24 11:37:00;;;;;;;4.65;3.55;;;;;;;;;;4978517;28;20049;-78
2023/05/24 11:39:33;;;;;;;6.53;4.30;;;;;;;;;;4977809;28;20111;-78
2023/05/24 11:42:01;;;;;;;4.18;3.80;;;;;;;;;;4961748;28;20145;-79
2023/05/24 11:44:28;;;;;;;4.10;3.80;;;;;;;;;;4961384;28;20037;-78
2023/05/24 11:46:58;;;;;;;4.88;3.63;;;;;;;;;;4993493;28;20100;-77
2023/05/24 11:49:24;;;;;;;6.28;3.78;;;;;;;;;;4993411;28;20030;-78
2023/05/24 11:51:52;;;;;;;10.25;3.90;;;;;;;;;;4961438;28;20045;-79
2023/05/24 11:54:21;;;;;;;7.07;3.85;;;;;;;;;;5010964;28;20038;-78
2023/05/24 11:56:51;;;;;;;6.60;4.00;;;;;;;;;;4994175;28;20096;-78
2023/05/24 11:59:20;;;;;;;6.68;3.97;;;;;;;;;;4976922;28;20038;-78
2023/05/24 12:01:46;;;;;;;4.70;4.38;;;;;;;;;;4993765;28;20068;-78
2023/05/24 12:04:12;;;;;;;8.38;5.22;;;;;;;;;;5011095;28;20529;-78
2023/05/24 12:06:38;;;;;;;7.80;4.53;;;;;;;;;;4975901;28;20054;-77
2023/05/24 12:09:07;;;;;;;6.32;4.75;;;;;;;;;;4961922;28;20065;-78
2023/05/24 12:11:43;;;;;;;11.65;4.78;;;;;;;;;;4993587;28;20498;-78
2023/05/24 12:14:15;;;;;;;7.70;4.93;;;;;;;;;;4977165;28;20030;-78
2023/05/24 12:16:42;;;;;;;5.85;4.43;;;;;;;;;;4961132;28;20037;-79
2023/05/24 12:19:11;;;;;;;7.63;4.25;;;;;;;;;;4977147;28;20108;-78
2023/05/24 12:21:39;;;;;;;5.70;4.63;;;;;;;;;;4977363;28;20504;-78
2023/05/24 12:24:13;;;;;;;6.68;4.82;;;;;;;;;;4976847;28;20049;-79
2023/05/24 12:26:39;;;;;;;11.27;5.22;;;;;;;;;;4993039;28;20065;-77
2023/05/24 12:29:05;;;;;;;8.32;4.80;;;;;;;;;;4976763;28;20038;-79
2023/05/24 12:31:33;;;;;;;9.15;4.75;;;;;;;;;;4976838;28;20572;-79
2023/05/24 12:33:59;;;;;;;14.40;4.45;;;;;;;;;;4992945;28;20107;-78
2023/05/24 12:36:27;;;;;;;8.88;4.57;;;;;;;;;;4976471;28;20481;-78
2023/05/24 12:38:55;;;;;;;5.72;4.40;;;;;;;;;;4960082;28;20682;-80
2023/05/24 12:41:21;;;;;;;8.68;4.43;;;;;;;;;;4939477;28;20345;-79
2023/05/24 12:43:48;;;;;;;8.13;4.47;;;;;;;;;;4992625;28;20034;-79
2023/05/24 12:46:14;;;;;;;6.57;4.63;;;;;;;;;;4976939;28;20065;-80
2023/05/24 12:48:40;;;;;;;6.72;4.07;;;;;;;;;;4993457;28;20038;-79
2023/05/24 12:51:07;;;;;;;7.50;4.22;;;;;;;;;;4960471;28;20136;-80
2023/05/24 12:53:33;;;;;;;4.30;3.97;;;;;;;;;;4991370;28;20061;-80
2023/05/24 12:56:00;;;;;;;12.75;4.20;;;;;;;;;;4976962;28;20050;-78
2023/05/24 12:58:26;;;;;;;5.70;4.55;;;;;;;;;;4976328;28;20100;-80
2023/05/24 13:00:53;;;;;;;7.68;4.50;;;;;;;;;;4977202;28;20042;-78
2023/05/24 13:03:18;;;;;;;8.15;4.75;;;;;;;;;;4976242;28;20644;-79
2023/05/24 13:05:46;;;;;;;4.90;4.40;;;;;;;;;;4977254;28;20050;-79
2023/05/24 13:08:12;;;;;;;6.00;4.68;;;;;;;;;;4992922;28;20133;-80
2023/05/24 13:10:39;;;;;;;7.45;5.47;;;;;;;;;;4993155;28;20433;-80
2023/05/24 13:13:05;;;;;;;16.67;5.53;;;;;;;;;;4992728;28;20045;-79
2023/05/24 13:15:32;;;;;;;7.00;6.15;;;;;;;;;;4992713;28;20050;-79
2023/05/24 13:17:58;;;;;;;9.98;4.88;;;;;;;;;;4960229;28;20073;-80
2023/05/24 13:20:24;;;;;;;12.55;5.28;;;;;;;;;;4976498;28;20042;-79
2023/05/24 13:22:50;;;;;;;7.43;4.80;;;;;;;;;;4975813;28;20081;-79
2023/05/24 13:25:16;;;;;;;5.20;4.80;;;;;;;;;;4992352;28;20562;-80
2023/05/24 13:27:42;;;;;;;5.22;4.75;;;;;;;;;;4971714;28;20050;-79
2023/05/24 13:30:08;;;;;;;9.52;5.20;;;;;;;;;;4988404;28;20579;-78
2023/05/24 13:32:36;;;;;;;5.55;4.80;;;;;;;;;;4987938;28;20093;-80
2023/05/24 13:35:02;;;;;;;10.77;5.05;;;;;;;;;;4971779;28;20101;-78
2023/05/24 13:37:30;;;;;;;11.70;6.03;;;;;;;;;;4988065;28;20507;-80
2023/05/24 13:39:56;;;;;;;8.10;5.68;;;;;;;;;;4981131;28;20100;-78
2023/05/24 13:42:22;;;;;;;18.00;5.93;;;;;;;;;;4976670;28;20053;-77
2023/05/24 13:44:48;;;;;;;6.15;5.18;;;;;;;;;;4977870;28;20442;-78
2023/05/24 13:47:18;;;;;;;6.50;5.20;;;;;;;;;;4975769;28;20050;-78
2023/05/24 13:49:44;;;;;;;5.68;5.18;;;;;;;;;;4976377;28;20457;-78
2023/05/24 13:52:10;;;;;;;9.35;5.40;;;;;;;;;;4944662;28;20065;-78
2023/05/24 13:54:37;;;;;;;6.00;5.38;;;;;;;;;;4981380;28;20067;-78
2023/05/24 13:57:04;;;;;;;6.32;5.82;;;;;;;;;;4977226;28;20153;-77
2023/05/24 13:59:30;;;;;;;7.57;5.47;;;;;;;;;;4980227;28;20081;-78
2023/05/24 14:01:56;;;;;;;9.18;5.80;;;;;;;;;;4979840;28;20038;-79
2023/05/24 14:04:22;;;;;;;6.28;5.70;;;;;;;;;;5012561;28;20046;-78
2023/05/24 14:06:48;;;;;;;8.85;5.68;;;;;;;;;;4979691;28;20545;-79
2023/05/24 14:09:14;;;;;;;6.40;5.75;;;;;;;;;;4995447;28;20095;-79
2023/05/24 14:11:40;;;;;;;9.45;5.85;;;;;;;;;;4979341;28;20057;-77
2023/05/24 14:14:06;;;;;;;11.93;5.57;;;;;;;;;;4979024;28;20034;-77
2023/05/24 14:16:32;;;;;;;7.72;5.80;;;;;;;;;;4978883;28;20046;-78
2023/05/24 14:18:58;;;;;;;9.07;6.05;;;;;;;;;;4947101;28;20104;-78
2023/05/24 14:21:25;;;;;;;6.63;5.95;;;;;;;;;;4979244;28;20049;-78
2023/05/24 14:23:52;;;;;;;14.18;5.90;;;;;;;;;;4996274;28;20053;-77
2023/05/24 14:26:19;;;;;;;21.77;6.20;;;;;;;;;;4983206;28;20119;-78
2023/05/24 14:28:45;;;;;;;10.90;6.45;;;;;;;;;;4980652;28;20038;-78
2023/05/24 14:31:11;;;;;;;7.63;6.22;;;;;;;;;;4949466;28;20465;-78
2023/05/24 14:33:38;;;;;;;10.77;6.07;;;;;;;;;;4976137;28;20541;-78
2023/05/24 14:36:04;;;;;;;10.80;6.43;;;;;;;;;;4990182;28;20034;-78
2023/05/24 14:38:30;;;;;;;7.95;5.50;;;;;;;;;;5013074;28;20041;-78
2023/05/24 14:40:57;;;;;;;12.20;5.63;;;;;;;;;;4995050;28;20099;-80